createdAt,value
2022-10-20T00:01:46.206Z,102045.72
2022-10-20T00:04:15.748Z,102043.03
2022-10-20T00:06:44.540Z,102033.19
2022-10-20T00:09:13.840Z,102019.56
2022-10-20T00:11:42.636Z,102008.84
2022-10-20T00:14:13.592Z,102017.53
2022-10-20T00:16:42.809Z,101999.22
2022-10-20T00:19:12.920Z,102004.91
2022-10-20T00:21:41.425Z,101996.50
2022-10-20T00:24:10.075Z,101983.94
2022-10-20T00:26:38.555Z,101985.53
2022-10-20T00:29:07.918Z,101991.50
2022-10-20T00:31:38.438Z,101980.63
2022-10-20T00:34:07.201Z,101979.94
2022-10-20T00:36:35.848Z,101976.78
2022-10-20T00:39:09.107Z,101974.09
2022-10-20T00:41:40.019Z,101974.50
2022-10-20T00:44:50.272Z,101963.09
2022-10-20T00:47:33.402Z,101968.81
2022-10-20T00:50:09.446Z,101941.25
2022-10-20T00:52:43.654Z,101949.63
2022-10-20T00:55:16.617Z,101945.00
2022-10-20T00:57:51.283Z,101937.34
2022-10-20T01:00:23.342Z,101933.81
2022-10-20T01:02:56.612Z,101925.66
2022-10-20T01:05:25.550Z,101925.97
2022-10-20T01:07:54.896Z,101916.44
2022-10-20T01:10:27.535Z,101922.97
2022-10-20T01:13:07.431Z,101933.75
2022-10-20T01:15:46.208Z,101937.19
2022-10-20T01:18:26.095Z,101935.16
2022-10-20T01:21:18.025Z,101935.16
2022-10-20T01:24:09.048Z,101933.94
2022-10-20T01:27:24.861Z,101936.63
2022-10-20T01:30:03.009Z,101928.56
2022-10-20T01:33:08.092Z,101924.72
2022-10-20T01:35:54.972Z,101920.84
2022-10-20T01:38:33.608Z,101900.16
2022-10-20T01:41:12.520Z,101912.81
2022-10-20T01:43:46.453Z,101905.47
2022-10-20T01:46:17.882Z,101896.34
2022-10-20T01:48:48.314Z,101885.00
2022-10-20T01:51:19.955Z,101866.69
2022-10-20T01:53:50.814Z,101873.59
2022-10-20T01:56:30.147Z,101873.22
2022-10-20T01:59:34.559Z,101853.81
2022-10-20T02:02:29.088Z,101852.63
2022-10-20T02:05:18.680Z,101837.75
2022-10-20T02:07:47.798Z,101833.09
2022-10-20T02:10:24.514Z,101832.66
2022-10-20T02:13:01.247Z,101827.38
2022-10-20T02:15:34.991Z,101826.78
2022-10-20T02:18:10.523Z,101834.81
2022-10-20T02:20:44.128Z,101815.88
2022-10-20T02:23:13.458Z,101818.78
2022-10-20T02:25:43.473Z,101806.34
2022-10-20T02:28:16.127Z,101800.28
2022-10-20T02:30:47.451Z,101797.59
2022-10-20T02:33:18.061Z,101802.91
2022-10-20T02:35:56.500Z,101811.41
2022-10-20T02:38:26.759Z,101807.63
2022-10-20T02:40:56.426Z,101804.00
2022-10-20T02:43:26.041Z,101805.22
2022-10-20T02:45:56.979Z,101797.94
2022-10-20T02:48:27.916Z,101791.13
2022-10-20T02:50:57.536Z,101794.00
2022-10-20T02:53:29.764Z,101774.34
2022-10-20T02:55:59.611Z,101780.25
2022-10-20T02:58:29.411Z,101779.41
2022-10-20T03:01:02.585Z,101775.84
2022-10-20T03:03:32.025Z,101762.03
2022-10-20T03:06:09.599Z,101754.88
2022-10-20T03:08:50.151Z,101748.06
2022-10-20T03:11:29.076Z,101744.09
2022-10-20T03:13:57.641Z,101743.00
2022-10-20T03:16:28.135Z,101755.56
2022-10-20T03:19:00.287Z,101758.31
2022-10-20T03:21:33.472Z,101757.59
2022-10-20T03:24:04.235Z,101744.84
2022-10-20T03:26:41.274Z,101753.16
2022-10-20T03:29:10.820Z,101732.94
2022-10-20T03:31:42.522Z,101732.91
2022-10-20T03:34:12.907Z,101731.88
2022-10-20T03:36:42.152Z,101737.19
2022-10-20T03:39:11.597Z,101729.81
2022-10-20T03:41:45.464Z,101721.06
2022-10-20T03:44:15.277Z,101711.19
2022-10-20T03:46:45.234Z,101709.38
2022-10-20T03:49:16.931Z,101700.97
2022-10-20T03:51:45.983Z,101696.00
2022-10-20T03:54:30.399Z,101688.06
2022-10-20T03:57:13.224Z,101679.25
2022-10-20T03:59:42.375Z,101681.00
2022-10-20T04:02:32.891Z,101679.81
2022-10-20T04:05:08.064Z,101677.94
2022-10-20T04:07:38.609Z,101675.75
2022-10-20T04:10:08.550Z,101665.88
2022-10-20T04:12:53.717Z,101668.53
2022-10-20T04:15:24.796Z,101661.16
2022-10-20T04:17:55.566Z,101651.06
2022-10-20T04:20:25.815Z,101632.84
2022-10-20T04:23:02.282Z,101620.50
2022-10-20T04:25:32.297Z,101605.09
2022-10-20T04:28:02.485Z,101612.06
2022-10-20T04:30:32.687Z,101615.38
2022-10-20T04:33:05.937Z,101618.75
2022-10-20T04:35:37.871Z,101646.75
2022-10-20T04:38:08.529Z,101633.00
2022-10-20T04:40:37.226Z,101611.72
2022-10-20T04:43:06.481Z,101611.78
2022-10-20T04:45:35.304Z,101614.09
2022-10-20T04:48:17.446Z,101623.69
2022-10-20T04:50:46.072Z,101627.38
2022-10-20T04:53:15.243Z,101630.09
2022-10-20T04:55:45.153Z,101614.31
2022-10-20T05:01:05.468Z,101641.66
2022-10-20T05:03:44.530Z,101644.06
2022-10-20T05:06:17.101Z,101623.66
2022-10-20T05:08:51.891Z,101602.06
2022-10-20T05:11:24.580Z,101596.56
2022-10-20T05:13:53.135Z,101599.38
2022-10-20T05:16:42.379Z,101590.41
2022-10-20T05:19:20.881Z,101595.94
2022-10-20T05:21:51.363Z,101594.72
2022-10-20T05:24:42.139Z,101580.47
2022-10-20T05:29:56.303Z,101574.28
2022-10-20T05:32:25.916Z,101560.97
2022-10-20T05:34:58.572Z,101545.75
2022-10-20T05:37:31.460Z,101524.91
2022-10-20T05:40:03.614Z,101539.09
2022-10-20T05:42:33.824Z,101534.59
2022-10-20T05:45:11.135Z,101575.84
2022-10-20T05:47:44.941Z,101594.50
2022-10-20T05:50:30.298Z,101583.56
2022-10-20T05:55:56.300Z,101547.34
2022-10-20T05:58:27.179Z,101533.34
2022-10-20T06:01:07.182Z,101519.19
2022-10-20T06:03:49.922Z,101530.44
2022-10-20T06:06:30.398Z,101530.63
2022-10-20T06:09:02.112Z,101541.03
2022-10-20T06:11:37.032Z,101535.03
2022-10-20T06:14:09.166Z,101533.31
2022-10-20T06:16:40.668Z,101527.97
2022-10-20T06:19:11.826Z,101537.88
2022-10-20T06:24:12.284Z,101521.13
2022-10-20T06:26:42.420Z,101518.38
2022-10-20T06:29:15.115Z,101539.41
2022-10-20T06:31:50.798Z,101536.34
2022-10-20T06:34:24.561Z,101545.97
2022-10-20T06:36:54.457Z,101555.97
2022-10-20T06:39:25.571Z,101556.03
2022-10-20T06:41:56.692Z,101548.38
2022-10-20T06:44:27.196Z,101548.22
2022-10-20T06:46:57.564Z,101549.44
2022-10-20T06:49:26.158Z,101534.38
2022-10-20T06:52:02.519Z,101530.13
2022-10-20T06:54:31.963Z,101521.44
2022-10-20T06:57:04.163Z,101534.81
2022-10-20T06:59:33.416Z,101526.66
2022-10-20T07:02:07.107Z,101513.31
2022-10-20T07:07:53.814Z,101517.59
2022-10-20T07:10:22.315Z,101509.44
2022-10-20T07:12:53.169Z,101518.47
2022-10-20T07:15:21.993Z,101517.78
2022-10-20T07:17:55.854Z,101521.28
2022-10-20T07:20:25.034Z,101509.00
2022-10-20T07:22:56.695Z,101509.53
2022-10-20T07:25:28.459Z,101525.34
2022-10-20T07:27:59.005Z,101517.72
2022-10-20T07:30:28.566Z,101516.31
2022-10-20T07:32:58.324Z,101507.91
2022-10-20T07:35:29.131Z,101493.41
2022-10-20T07:43:54.403Z,101476.59
2022-10-20T07:46:26.083Z,101488.53
2022-10-20T07:52:01.019Z,101483.44
2022-10-20T07:54:37.753Z,101488.41
2022-10-20T07:57:09.340Z,101493.09
2022-10-20T07:59:39.422Z,101486.47
2022-10-20T08:02:11.890Z,101485.84
2022-10-20T08:04:42.137Z,101483.56
2022-10-20T08:07:11.167Z,101468.94
2022-10-20T08:09:41.289Z,101475.09
2022-10-20T08:12:14.502Z,101465.72
2022-10-20T08:14:46.544Z,101462.53
2022-10-20T08:17:15.228Z,101468.63
2022-10-20T08:22:28.592Z,101455.75
2022-10-20T08:25:00.255Z,101440.53
2022-10-20T08:27:35.602Z,101435.72
2022-10-20T08:30:22.921Z,101449.13
2022-10-20T08:32:53.825Z,101432.25
2022-10-20T08:35:24.966Z,101429.44
2022-10-20T08:38:08.263Z,101435.81
2022-10-20T08:40:42.338Z,101434.84
2022-10-20T08:43:19.075Z,101431.97
2022-10-20T08:45:51.082Z,101443.19
2022-10-20T08:48:25.387Z,101425.91
2022-10-20T08:50:55.944Z,101436.06
2022-10-20T08:53:28.683Z,101425.72
2022-10-20T08:55:59.058Z,101422.88
2022-10-20T08:58:29.151Z,101421.63
2022-10-20T09:01:01.093Z,101414.03
2022-10-20T09:03:35.443Z,101416.53
2022-10-20T09:06:11.735Z,101417.13
2022-10-20T09:08:41.425Z,101408.13
2022-10-20T09:11:21.858Z,101407.31
2022-10-20T09:13:51.567Z,101400.00
2022-10-20T09:16:42.283Z,101393.63
2022-10-20T09:19:20.869Z,101391.91
2022-10-20T09:22:05.733Z,101378.09
2022-10-20T09:24:38.966Z,101371.41
2022-10-20T09:27:34.583Z,101383.56
2022-10-20T09:30:20.350Z,101366.81
2022-10-20T09:32:53.688Z,101364.91
2022-10-20T09:35:31.906Z,101356.44
2022-10-20T09:38:18.987Z,101348.84
2022-10-20T09:40:58.814Z,101351.06
2022-10-20T09:43:30.552Z,101348.94
2022-10-20T09:46:09.707Z,101352.00
2022-10-20T09:48:42.020Z,101355.19
2022-10-20T09:51:18.282Z,101364.13
2022-10-20T09:54:09.494Z,101350.28
2022-10-20T09:56:40.896Z,101335.44
2022-10-20T10:02:35.203Z,101352.44
2022-10-20T10:05:21.383Z,101347.47
2022-10-20T10:08:11.987Z,101343.41
2022-10-20T10:10:42.503Z,101332.47
2022-10-20T10:13:28.313Z,101335.63
2022-10-20T10:16:10.186Z,101356.44
2022-10-20T10:18:43.322Z,101346.31
2022-10-20T10:21:17.652Z,101349.91
2022-10-20T10:23:55.715Z,101357.78
2022-10-20T10:26:55.500Z,101357.38
2022-10-20T10:29:28.769Z,101344.47
2022-10-20T10:32:06.634Z,101344.22
2022-10-20T10:35:15.464Z,101331.50
2022-10-20T10:37:50.674Z,101341.72
2022-10-20T10:40:21.900Z,101343.34
2022-10-20T10:43:15.901Z,101346.22
2022-10-20T10:45:52.794Z,101346.03
2022-10-20T10:49:15.474Z,101335.91
2022-10-20T10:51:59.657Z,101335.31
2022-10-20T10:54:45.392Z,101331.56
2022-10-20T10:57:26.373Z,101330.41
2022-10-20T10:59:56.548Z,101321.53
2022-10-20T11:02:59.135Z,101311.81
2022-10-20T11:05:57.587Z,101307.75
2022-10-20T11:09:02.885Z,101298.59
2022-10-20T11:11:47.938Z,101290.63
2022-10-20T11:14:31.941Z,101289.50
2022-10-20T11:17:19.270Z,101325.13
2022-10-20T11:20:12.221Z,101337.88
2022-10-20T11:22:54.007Z,101318.81
2022-10-20T11:25:36.118Z,101316.56
2022-10-20T11:28:29.522Z,101306.41
2022-10-20T11:31:05.550Z,101290.41
2022-10-20T11:33:44.792Z,101269.44
2022-10-20T11:36:20.749Z,101276.53
2022-10-20T11:38:54.067Z,101298.22
2022-10-20T11:41:32.836Z,101303.09
2022-10-20T11:44:08.104Z,101307.38
2022-10-20T11:46:42.121Z,101315.63
2022-10-20T11:49:12.747Z,101316.13
2022-10-20T11:52:31.706Z,101318.63
2022-10-20T11:55:18.723Z,101316.78
2022-10-20T11:58:22.917Z,101313.59
2022-10-20T12:01:11.183Z,101305.47
2022-10-20T12:04:19.405Z,101317.88
2022-10-20T12:07:35.475Z,101296.63
2022-10-20T12:10:44.909Z,101310.78
2022-10-20T12:13:49.429Z,101307.44
2022-10-20T12:17:21.491Z,101314.38
2022-10-20T12:19:53.560Z,101294.59
2022-10-20T12:22:44.492Z,101306.91
2022-10-20T12:25:41.834Z,101300.81
2022-10-20T12:28:44.424Z,101296.38
2022-10-20T12:31:14.902Z,101296.22
2022-10-20T12:34:04.315Z,101298.13
2022-10-20T12:36:42.853Z,101294.69
2022-10-20T12:39:30.693Z,101285.13
2022-10-20T12:42:08.495Z,101284.75
2022-10-20T12:44:45.989Z,101292.34
2022-10-20T12:47:25.679Z,101289.25
2022-10-20T12:49:58.998Z,101302.47
2022-10-20T12:52:32.601Z,101286.50
2022-10-20T12:55:08.438Z,101284.66
2022-10-20T12:57:41.702Z,101280.72
2022-10-20T13:01:03.830Z,101289.44
2022-10-20T13:03:47.810Z,101293.97
2022-10-20T13:06:43.961Z,101303.75
2022-10-20T13:09:26.081Z,101293.91
2022-10-20T13:12:26.780Z,101292.47
2022-10-20T13:15:03.206Z,101290.38
2022-10-20T13:17:49.834Z,101280.38
2022-10-20T13:20:31.326Z,101283.03
2022-10-20T13:23:02.258Z,101281.25
2022-10-20T13:25:41.322Z,101275.50
2022-10-20T13:28:22.971Z,101276.75
2022-10-20T13:31:15.235Z,101279.44
2022-10-20T13:34:04.518Z,101283.22
2022-10-20T13:37:03.517Z,101281.47
2022-10-20T13:39:45.544Z,101285.69
2022-10-20T13:42:41.542Z,101288.63
2022-10-20T13:45:22.652Z,101289.22
2022-10-20T13:48:04.032Z,101292.81
2022-10-20T13:50:37.061Z,101287.94
2022-10-20T13:53:22.491Z,101288.88
2022-10-20T13:56:07.135Z,101279.34
2022-10-20T13:58:37.008Z,101278.44
2022-10-20T14:01:09.501Z,101279.13
2022-10-20T14:03:46.169Z,101286.13
2022-10-20T14:06:41.823Z,101283.84
2022-10-20T14:09:18.039Z,101277.06
2022-10-20T14:11:48.179Z,101273.28
2022-10-20T14:14:21.502Z,101275.25
2022-10-20T14:16:55.503Z,101272.22
2022-10-20T14:19:28.423Z,101274.53
2022-10-20T14:22:00.655Z,101258.59
2022-10-20T14:24:36.479Z,101261.19
2022-10-20T14:27:07.106Z,101256.78
2022-10-20T14:29:40.598Z,101264.25
2022-10-20T14:32:09.766Z,101259.66
2022-10-20T14:34:56.591Z,101256.41
2022-10-20T14:37:33.076Z,101250.81
2022-10-20T14:40:19.448Z,101255.06
2022-10-20T14:42:48.330Z,101257.09
2022-10-20T14:45:26.687Z,101255.16
2022-10-20T14:47:58.701Z,101247.63
2022-10-20T14:50:34.670Z,101253.81
2022-10-20T14:53:34.792Z,101253.56
2022-10-20T14:56:26.794Z,101246.38
2022-10-20T14:59:01.388Z,101244.94
2022-10-20T15:01:34.845Z,101245.38
2022-10-20T15:04:18.709Z,101238.31
2022-10-20T15:06:48.317Z,101239.47
2022-10-20T15:09:33.688Z,101247.31
2022-10-20T15:12:14.975Z,101231.72
2022-10-20T15:14:47.616Z,101230.94
2022-10-20T15:17:48.866Z,101227.56
2022-10-20T15:20:38.896Z,101226.66
2022-10-20T15:23:11.229Z,101227.78
2022-10-20T15:25:47.915Z,101231.72
2022-10-20T15:28:38.691Z,101224.75
2022-10-20T15:31:20.463Z,101228.84
2022-10-20T15:33:52.528Z,101224.31
2022-10-20T15:36:25.196Z,101234.94
2022-10-20T15:38:53.986Z,101226.75
2022-10-20T15:41:25.290Z,101228.31
2022-10-20T15:43:56.272Z,101231.94
2022-10-20T15:46:27.563Z,101244.22
2022-10-20T15:48:56.165Z,101246.03
2022-10-20T15:51:29.227Z,101235.94
2022-10-20T15:53:58.957Z,101227.69
2022-10-20T15:56:27.489Z,101222.75
2022-10-20T15:59:00.588Z,101226.81
2022-10-20T16:01:31.104Z,101223.16
2022-10-20T16:04:01.447Z,101218.00
2022-10-20T16:06:30.155Z,101228.81
2022-10-20T16:08:59.377Z,101227.97
2022-10-20T16:11:28.500Z,101219.75
2022-10-20T16:13:58.609Z,101218.31
2022-10-20T16:16:27.809Z,101223.84
2022-10-20T16:18:56.782Z,101227.41
2022-10-20T16:21:29.021Z,101231.66
2022-10-20T16:23:57.922Z,101239.09
2022-10-20T16:26:27.030Z,101223.97
2022-10-20T16:28:56.042Z,101219.06
2022-10-20T16:31:34.407Z,101221.09
2022-10-20T16:34:03.387Z,101222.88
2022-10-20T16:36:32.193Z,101216.09
2022-10-20T16:39:01.067Z,101220.44
2022-10-20T16:41:33.646Z,101211.16
2022-10-20T16:44:05.449Z,101229.06
2022-10-20T16:46:35.437Z,101226.50
2022-10-20T16:49:04.728Z,101219.69
2022-10-20T16:51:34.336Z,101214.72
2022-10-20T16:54:03.442Z,101226.09
2022-10-20T16:56:33.065Z,101222.56
2022-10-20T16:59:01.950Z,101219.00
2022-10-20T17:01:34.935Z,101212.06
2022-10-20T17:04:08.734Z,101200.25
2022-10-20T17:06:38.204Z,101222.19
2022-10-20T17:09:08.243Z,101201.91
2022-10-20T17:11:36.604Z,101202.72
2022-10-20T17:14:05.816Z,101202.19
2022-10-20T17:16:38.949Z,101198.81
2022-10-20T17:19:09.443Z,101209.69
2022-10-20T17:21:40.166Z,101206.66
2022-10-20T17:24:13.495Z,101210.50
2022-10-20T17:26:43.419Z,101216.66
2022-10-20T17:29:22.367Z,101208.16
2022-10-20T17:32:04.284Z,101217.31
2022-10-20T17:34:35.609Z,101214.03
2022-10-20T17:37:06.008Z,101212.38
2022-10-20T17:39:40.422Z,101212.50
2022-10-20T17:42:09.590Z,101201.50
2022-10-20T17:47:43.041Z,101192.34
2022-10-20T17:50:13.935Z,101201.94
2022-10-20T17:52:48.283Z,101199.00
2022-10-20T17:55:18.148Z,101188.94
2022-10-20T17:57:48.758Z,101197.28
2022-10-20T18:00:23.104Z,101209.84
2022-10-20T18:03:07.434Z,101207.59
2022-10-20T18:05:39.414Z,101207.75
2022-10-20T18:08:13.372Z,101200.72
2022-10-20T18:10:45.937Z,101199.78
2022-10-20T18:13:21.901Z,101187.25
2022-10-20T18:15:51.582Z,101197.44
2022-10-20T18:18:26.176Z,101172.97
2022-10-20T18:21:02.049Z,101175.47
2022-10-20T18:23:36.404Z,101172.38
2022-10-20T18:26:14.206Z,101169.00
2022-10-20T18:28:47.430Z,101179.09
2022-10-20T18:31:22.081Z,101176.56
2022-10-20T18:33:58.198Z,101174.38
2022-10-20T18:36:31.678Z,101190.66
2022-10-20T18:39:01.428Z,101182.53
2022-10-20T18:41:33.791Z,101174.44
2022-10-20T18:44:03.606Z,101169.66
2022-10-20T18:46:34.495Z,101161.03
2022-10-20T18:49:07.333Z,101162.41
2022-10-20T18:51:39.518Z,101167.72
2022-10-20T18:54:14.864Z,101165.13
2022-10-20T18:56:44.433Z,101175.28
2022-10-20T18:59:16.574Z,101169.50
2022-10-20T19:01:48.452Z,101172.03
2022-10-20T19:04:17.886Z,101162.41
2022-10-20T19:06:49.786Z,101167.81
2022-10-20T19:09:21.001Z,101177.50
2022-10-20T19:11:53.065Z,101163.25
2022-10-20T19:14:21.924Z,101154.78
2022-10-20T19:16:51.469Z,101150.56
2022-10-20T19:19:20.941Z,101154.97
2022-10-20T19:21:51.588Z,101149.38
2022-10-20T19:24:23.944Z,101131.50
2022-10-20T19:27:25.117Z,101134.97
2022-10-20T19:29:44.273Z,101138.88
2022-10-20T19:32:15.335Z,101149.00
2022-10-20T19:34:47.545Z,101146.09
2022-10-20T19:37:17.841Z,101140.84
2022-10-20T19:39:49.109Z,101141.22
2022-10-20T19:42:18.206Z,101133.88
2022-10-20T19:44:47.008Z,101136.78
2022-10-20T19:47:15.962Z,101128.84
2022-10-20T19:49:45.184Z,101120.38
2022-10-20T19:52:14.781Z,101106.16
2022-10-20T19:54:44.832Z,101099.84
2022-10-20T19:57:15.185Z,101097.59
2022-10-20T19:59:45.673Z,101096.22
2022-10-20T20:02:14.893Z,101082.03
2022-10-20T20:04:45.070Z,101096.72
2022-10-20T20:07:13.552Z,101077.44
2022-10-20T20:09:50.834Z,101082.41
2022-10-20T20:12:20.344Z,101075.31
2022-10-20T20:14:49.278Z,101073.69
2022-10-20T20:17:18.266Z,101073.53
2022-10-20T20:19:47.759Z,101071.13
2022-10-20T20:22:18.164Z,101059.59
2022-10-20T20:24:50.546Z,101066.19
2022-10-20T20:27:20.819Z,101063.09
2022-10-20T20:29:50.093Z,101060.03
2022-10-20T20:32:24.904Z,101054.59
2022-10-20T20:34:54.081Z,101053.88
2022-10-20T20:37:24.921Z,101061.41
2022-10-20T20:39:56.739Z,101059.34
2022-10-20T20:42:25.147Z,101077.03
2022-10-20T20:44:57.026Z,101063.69
2022-10-20T20:47:27.563Z,101064.41
2022-10-20T20:49:56.661Z,101077.03
2022-10-20T20:52:38.132Z,101074.25
2022-10-20T20:55:08.841Z,101084.22
2022-10-20T20:57:38.298Z,101075.19
2022-10-20T21:00:09.735Z,101069.22
2022-10-20T21:02:38.485Z,101075.72
2022-10-20T21:05:08.778Z,101089.41
2022-10-20T21:07:39.267Z,101079.91
2022-10-20T21:10:12.730Z,101087.97
2022-10-20T21:12:41.975Z,101087.75
2022-10-20T21:15:14.507Z,101083.47
2022-10-20T21:17:46.868Z,101058.16
2022-10-20T21:20:15.379Z,101063.88
2022-10-20T21:22:44.141Z,101065.34
2022-10-20T21:25:14.581Z,101074.31
2022-10-20T21:27:43.994Z,101069.66
2022-10-20T21:30:13.390Z,101069.03
2022-10-20T21:32:42.062Z,101077.72
2022-10-20T21:35:10.976Z,101074.97
2022-10-20T21:37:42.292Z,101076.00
2022-10-20T21:40:19.410Z,101073.28
2022-10-20T21:42:48.769Z,101082.16
2022-10-20T21:45:19.313Z,101090.44
2022-10-20T21:47:50.007Z,101091.47
2022-10-20T21:50:18.892Z,101086.53
2022-10-20T21:52:51.779Z,101078.38
2022-10-20T21:55:21.535Z,101082.59
2022-10-20T21:57:51.905Z,101082.44
2022-10-20T22:00:21.964Z,101078.69
2022-10-20T22:02:55.777Z,101098.63
2022-10-20T22:05:24.214Z,101094.66
2022-10-20T22:07:53.250Z,101088.50
2022-10-20T22:10:23.249Z,101079.91
2022-10-20T22:12:53.649Z,101085.59
2022-10-20T22:15:22.976Z,101079.22
2022-10-20T22:17:51.447Z,101078.16
2022-10-20T22:20:21.193Z,101065.63
2022-10-20T22:22:50.394Z,101068.63
2022-10-20T22:25:20.500Z,101066.06
2022-10-20T22:27:54.898Z,101071.00
2022-10-20T22:30:23.789Z,101061.75
2022-10-20T22:32:53.833Z,101070.09
2022-10-20T22:35:22.704Z,101080.78
2022-10-20T22:37:51.087Z,101083.41
2022-10-20T22:40:21.311Z,101075.91
2022-10-20T22:42:51.550Z,101068.81
2022-10-20T22:45:20.264Z,101064.47
2022-10-20T22:47:49.148Z,101070.00
2022-10-20T22:50:18.057Z,101076.31
2022-10-20T22:52:52.216Z,101072.13
2022-10-20T22:55:21.464Z,101065.69
2022-10-20T22:57:56.285Z,101063.94
2022-10-20T23:00:25.001Z,101066.72
2022-10-20T23:02:53.738Z,101066.28
2022-10-20T23:05:22.389Z,101071.56
2022-10-20T23:07:51.131Z,101071.03
2022-10-20T23:10:22.044Z,101077.00
2022-10-20T23:12:55.877Z,101075.69
2022-10-20T23:15:34.417Z,101075.25
2022-10-20T23:18:03.640Z,101060.84
2022-10-20T23:20:32.687Z,101058.88
2022-10-20T23:23:01.639Z,101056.66
2022-10-20T23:25:30.662Z,101053.47
2022-10-20T23:28:01.528Z,101042.13
2022-10-20T23:30:30.770Z,101048.38
2022-10-20T23:32:59.407Z,101030.44
2022-10-20T23:35:28.011Z,101023.72
2022-10-20T23:37:56.642Z,101018.97
2022-10-20T23:40:25.112Z,101021.28
2022-10-20T23:42:55.424Z,101017.88
2022-10-20T23:45:25.693Z,101030.84
2022-10-20T23:47:54.211Z,101032.00
2022-10-20T23:50:24.439Z,101039.91
2022-10-20T23:52:54.006Z,101033.19
2022-10-20T23:55:23.785Z,101050.91
2022-10-20T23:57:58.449Z,101042.13
